createdAt,value
2023-01-19T00:01:26.533Z,0.10
2023-01-19T00:03:53.894Z,0.10
2023-01-19T00:06:21.198Z,0.00
2023-01-19T00:08:50.197Z,0.00
2023-01-19T00:11:18.026Z,0.00
2023-01-19T00:13:51.942Z,-0.10
2023-01-19T00:16:22.801Z,-0.10
2023-01-19T00:18:52.168Z,-0.10
2023-01-19T00:21:21.677Z,-0.10
2023-01-19T00:23:50.982Z,-0.10
2023-01-19T00:26:19.278Z,-0.20
2023-01-19T00:28:46.729Z,-0.20
2023-01-19T00:31:14.029Z,-0.20
2023-01-19T00:33:41.453Z,-0.20
2023-01-19T00:36:09.375Z,-0.30
2023-01-19T00:38:36.659Z,-0.30
2023-01-19T00:41:03.870Z,-0.30
2023-01-19T00:43:31.141Z,-0.30
2023-01-19T00:45:58.728Z,-0.50
2023-01-19T00:48:26.008Z,-0.50
2023-01-19T00:50:53.583Z,-0.50
2023-01-19T00:53:20.974Z,-0.60
2023-01-19T00:55:48.381Z,-0.50
2023-01-19T00:58:15.780Z,-0.70
2023-01-19T01:00:43.540Z,-0.60
2023-01-19T01:03:11.043Z,-0.70
2023-01-19T01:05:41.673Z,-0.80
2023-01-19T01:08:09.820Z,-0.80
2023-01-19T01:10:37.255Z,-0.80
2023-01-19T01:13:20.478Z,-0.90
2023-01-19T01:15:55.405Z,-0.90
2023-01-19T01:18:23.564Z,-1.00
2023-01-19T01:20:50.994Z,-1.00
2023-01-19T01:23:22.647Z,-1.00
2023-01-19T01:25:50.096Z,-1.00
2023-01-19T01:28:17.532Z,-1.20
2023-01-19T01:30:45.029Z,-1.30
2023-01-19T01:33:12.837Z,-1.20
2023-01-19T01:35:40.621Z,-1.20
2023-01-19T01:38:08.083Z,-1.40
2023-01-19T01:40:35.484Z,-1.50
2023-01-19T01:43:03.655Z,-1.40
2023-01-19T01:45:37.337Z,-1.40
2023-01-19T01:48:27.966Z,-1.40
2023-01-19T01:51:19.264Z,-1.50
2023-01-19T01:53:52.507Z,-1.50
2023-01-19T01:56:24.278Z,-1.50
2023-01-19T01:58:52.111Z,-1.50
2023-01-19T02:01:38.134Z,-1.50
2023-01-19T02:04:05.661Z,-1.60
2023-01-19T02:06:34.583Z,-1.50
2023-01-19T02:09:28.384Z,-1.60
2023-01-19T02:12:15.110Z,-1.50
2023-01-19T02:14:42.588Z,-1.70
2023-01-19T02:17:10.068Z,-1.70
2023-01-19T02:19:43.512Z,-1.70
2023-01-19T02:22:24.659Z,-1.70
2023-01-19T02:24:52.534Z,-1.80
2023-01-19T02:27:20.399Z,-1.80
2023-01-19T02:29:47.987Z,-1.80
2023-01-19T02:32:15.454Z,-1.90
2023-01-19T02:34:42.765Z,-1.90
2023-01-19T02:37:15.656Z,-1.90
2023-01-19T02:39:52.017Z,-1.90
2023-01-19T02:42:21.807Z,-1.90
2023-01-19T02:44:51.731Z,-2.00
2023-01-19T02:47:19.592Z,-2.00
2023-01-19T02:50:00.546Z,-2.00
2023-01-19T02:52:28.357Z,-2.00
2023-01-19T02:55:04.562Z,-2.10
2023-01-19T02:57:43.722Z,-2.10
2023-01-19T03:00:29.796Z,-2.10
2023-01-19T03:03:06.403Z,-2.20
2023-01-19T03:05:54.828Z,-2.20
2023-01-19T03:08:44.236Z,-2.20
2023-01-19T03:11:13.479Z,-2.30
2023-01-19T03:14:02.049Z,-2.30
2023-01-19T03:16:50.992Z,-2.40
2023-01-19T03:19:32.149Z,-2.30
2023-01-19T03:22:04.008Z,-2.50
2023-01-19T03:24:37.142Z,-2.50
2023-01-19T03:27:11.626Z,-2.50
2023-01-19T03:29:43.104Z,-2.60
2023-01-19T03:32:15.774Z,-2.60
2023-01-19T03:34:44.649Z,-2.60
2023-01-19T03:37:15.341Z,-2.60
2023-01-19T03:39:42.923Z,-2.60
2023-01-19T03:42:16.206Z,-2.60
2023-01-19T03:44:45.265Z,-2.60
2023-01-19T03:47:14.425Z,-2.60
2023-01-19T03:49:44.328Z,-2.60
2023-01-19T03:52:12.880Z,-2.60
2023-01-19T03:54:40.974Z,-2.70
2023-01-19T03:57:08.526Z,-2.70
2023-01-19T03:59:36.079Z,-2.70
2023-01-19T04:02:03.522Z,-2.70
2023-01-19T04:04:30.924Z,-2.70
2023-01-19T04:06:58.382Z,-2.70
2023-01-19T04:09:25.691Z,-2.70
2023-01-19T04:11:53.000Z,-2.80
2023-01-19T04:14:20.350Z,-2.80
2023-01-19T04:16:47.606Z,-2.80
2023-01-19T04:19:15.055Z,-2.80
2023-01-19T04:21:42.460Z,-2.80
2023-01-19T04:24:10.655Z,-2.80
2023-01-19T04:26:37.965Z,-2.70
2023-01-19T04:29:05.423Z,-2.70
2023-01-19T04:31:33.236Z,-2.70
2023-01-19T04:34:00.460Z,-2.70
2023-01-19T04:36:28.391Z,-2.60
2023-01-19T04:38:56.503Z,-2.60
2023-01-19T04:41:23.910Z,-2.60
2023-01-19T04:43:51.117Z,-2.60
2023-01-19T04:46:18.408Z,-2.60
2023-01-19T04:48:46.041Z,-2.60
2023-01-19T04:51:13.405Z,-2.60
2023-01-19T04:53:40.820Z,-2.60
2023-01-19T04:56:08.253Z,-2.60
2023-01-19T04:58:35.923Z,-2.60
2023-01-19T05:01:08.604Z,-2.60
2023-01-19T05:03:36.021Z,-2.60
2023-01-19T05:06:03.528Z,-2.70
2023-01-19T05:08:31.083Z,-2.60
2023-01-19T05:10:59.328Z,-2.70
2023-01-19T05:13:26.688Z,-2.70
2023-01-19T05:15:54.059Z,-2.70
2023-01-19T05:18:21.599Z,-2.70
2023-01-19T05:20:49.049Z,-2.60
2023-01-19T05:23:16.430Z,-2.60
2023-01-19T05:25:44.529Z,-2.60
2023-01-19T05:28:12.224Z,-2.60
2023-01-19T05:30:39.624Z,-2.60
2023-01-19T05:33:07.045Z,-2.60
2023-01-19T05:35:36.421Z,-2.60
2023-01-19T05:38:05.295Z,-2.60
2023-01-19T05:40:33.301Z,-2.60
2023-01-19T05:43:05.215Z,-2.70
2023-01-19T05:45:34.005Z,-2.80
2023-01-19T05:48:01.887Z,-2.80
2023-01-19T05:50:29.296Z,-2.80
2023-01-19T05:52:57.540Z,-2.90
2023-01-19T05:55:25.072Z,-2.90
2023-01-19T05:57:52.525Z,-2.90
2023-01-19T06:00:20.355Z,-2.80
2023-01-19T06:02:49.208Z,-2.80
2023-01-19T06:05:16.887Z,-2.80
2023-01-19T06:07:45.611Z,-2.80
2023-01-19T06:10:13.129Z,-2.70
2023-01-19T06:12:42.008Z,-2.70
2023-01-19T06:15:10.292Z,-2.60
2023-01-19T06:17:37.822Z,-2.60
2023-01-19T06:20:05.727Z,-2.50
2023-01-19T06:22:33.142Z,-2.40
2023-01-19T06:25:00.586Z,-2.30
2023-01-19T06:27:28.089Z,-2.10
2023-01-19T06:29:55.513Z,-1.90
2023-01-19T06:32:22.845Z,-1.90
2023-01-19T06:34:51.458Z,-1.80
2023-01-19T06:37:20.117Z,-1.70
2023-01-19T06:39:47.484Z,-1.40
2023-01-19T06:42:14.913Z,-1.20
2023-01-19T06:44:47.450Z,-1.30
2023-01-19T06:47:16.454Z,-1.20
2023-01-19T06:49:44.135Z,-1.00
2023-01-19T06:52:15.807Z,-1.00
2023-01-19T06:54:45.279Z,-0.90
2023-01-19T06:57:14.146Z,-0.90
2023-01-19T06:59:41.853Z,-0.80
2023-01-19T07:02:27.416Z,-0.90
2023-01-19T07:04:56.520Z,-0.90
2023-01-19T07:07:24.056Z,-0.90
2023-01-19T07:09:53.850Z,-0.90
2023-01-19T07:12:22.739Z,-0.90
2023-01-19T07:14:50.673Z,-0.90
2023-01-19T07:17:18.209Z,-0.90
2023-01-19T07:19:46.403Z,-0.80
2023-01-19T07:22:13.959Z,-0.70
2023-01-19T07:24:41.427Z,-0.70
2023-01-19T07:27:08.842Z,-0.70
2023-01-19T07:29:36.266Z,-0.60
2023-01-19T07:32:04.058Z,-0.40
2023-01-19T07:34:31.868Z,-0.40
2023-01-19T07:36:59.239Z,-0.20
2023-01-19T07:39:26.584Z,-0.10
2023-01-19T07:41:54.092Z,0.00
2023-01-19T07:44:23.693Z,0.10
2023-01-19T07:46:51.159Z,0.20
2023-01-19T07:49:18.738Z,0.30
2023-01-19T07:51:46.399Z,0.40
2023-01-19T07:54:13.717Z,0.50
2023-01-19T07:56:41.029Z,0.60
2023-01-19T07:59:10.123Z,0.70
2023-01-19T08:01:37.787Z,0.80
2023-01-19T08:04:05.792Z,0.90
2023-01-19T08:06:35.578Z,1.00
2023-01-19T08:09:05.525Z,1.10
2023-01-19T08:11:33.841Z,1.20
2023-01-19T08:14:01.333Z,1.30
2023-01-19T08:16:28.690Z,1.30
2023-01-19T08:18:56.304Z,1.40
2023-01-19T08:21:23.768Z,1.50
2023-01-19T08:23:58.055Z,1.50
2023-01-19T08:26:30.751Z,1.60
2023-01-19T08:29:00.721Z,1.70
2023-01-19T08:31:28.322Z,1.70
2023-01-19T08:33:55.850Z,1.80
2023-01-19T08:36:24.915Z,1.90
2023-01-19T08:38:52.798Z,1.80
2023-01-19T08:41:20.367Z,1.90
2023-01-19T08:43:48.873Z,2.00
2023-01-19T08:46:17.404Z,2.00
2023-01-19T08:48:50.923Z,2.00
2023-01-19T08:51:18.948Z,2.10
2023-01-19T08:53:46.771Z,2.10
2023-01-19T08:56:14.741Z,2.10
2023-01-19T08:58:43.812Z,2.10
2023-01-19T09:01:14.967Z,2.20
2023-01-19T09:03:43.746Z,2.30
2023-01-19T09:06:14.539Z,2.30
2023-01-19T09:08:41.974Z,2.40
2023-01-19T09:11:14.758Z,2.50
2023-01-19T09:13:42.368Z,2.50
2023-01-19T09:16:11.445Z,2.50
2023-01-19T09:18:39.437Z,2.50
2023-01-19T09:21:07.129Z,2.50
2023-01-19T09:23:34.570Z,2.50
2023-01-19T09:26:04.119Z,2.50
2023-01-19T09:28:32.033Z,2.50
2023-01-19T09:30:59.636Z,2.50
2023-01-19T09:33:27.304Z,2.50
2023-01-19T09:35:56.675Z,2.50
2023-01-19T09:38:25.842Z,2.50
2023-01-19T09:40:57.239Z,2.60
2023-01-19T09:43:41.629Z,2.50
2023-01-19T09:46:15.280Z,2.50
2023-01-19T09:48:54.626Z,2.50
2023-01-19T09:51:25.448Z,2.50
2023-01-19T09:53:58.837Z,2.50
2023-01-19T09:56:28.050Z,2.50
2023-01-19T09:58:55.599Z,2.50
2023-01-19T10:01:35.599Z,2.40
2023-01-19T10:04:27.346Z,2.40
2023-01-19T10:07:32.277Z,2.40
2023-01-19T10:10:18.200Z,2.40
2023-01-19T10:13:21.882Z,2.40
2023-01-19T10:15:55.248Z,2.40
2023-01-19T10:18:34.860Z,2.40
2023-01-19T10:21:16.707Z,2.40
2023-01-19T10:23:52.480Z,2.40
2023-01-19T10:26:24.678Z,2.40
2023-01-19T10:28:57.568Z,2.40
2023-01-19T10:31:25.186Z,2.40
2023-01-19T10:33:54.113Z,2.40
2023-01-19T10:36:41.761Z,2.40
2023-01-19T10:39:14.892Z,2.40
2023-01-19T10:41:53.865Z,2.50
2023-01-19T10:44:29.609Z,2.50
2023-01-19T10:46:59.999Z,2.60
2023-01-19T10:49:37.514Z,2.60
2023-01-19T10:52:19.138Z,2.70
2023-01-19T10:54:48.447Z,2.70
2023-01-19T10:57:27.966Z,2.80
2023-01-19T10:59:55.493Z,2.80
2023-01-19T11:02:28.410Z,2.90
2023-01-19T11:05:01.117Z,2.90
2023-01-19T11:07:30.212Z,3.00
2023-01-19T11:10:21.985Z,3.00
2023-01-19T11:13:15.926Z,3.10
2023-01-19T11:16:08.306Z,3.10
2023-01-19T11:18:40.790Z,3.20
2023-01-19T11:21:15.106Z,3.20
2023-01-19T11:23:54.380Z,3.20
2023-01-19T11:26:40.733Z,3.20
2023-01-19T11:29:28.547Z,3.20
2023-01-19T11:32:08.886Z,3.20
2023-01-19T11:34:40.597Z,3.20
2023-01-19T11:37:19.803Z,3.20
2023-01-19T11:39:52.615Z,3.20
2023-01-19T11:42:21.075Z,3.20
2023-01-19T11:45:07.286Z,3.20
2023-01-19T11:47:47.144Z,3.20
2023-01-19T11:50:21.345Z,3.20
2023-01-19T11:53:05.658Z,3.20
2023-01-19T11:55:55.063Z,3.20
2023-01-19T11:58:23.966Z,3.30
2023-01-19T12:01:29.857Z,3.30
2023-01-19T12:04:04.940Z,3.30
2023-01-19T12:06:39.751Z,3.30
2023-01-19T12:09:15.323Z,3.30
2023-01-19T12:11:57.284Z,3.30
2023-01-19T12:14:34.160Z,3.30
2023-01-19T12:17:05.309Z,3.30
2023-01-19T12:19:54.830Z,3.40
2023-01-19T12:22:23.736Z,3.40
2023-01-19T12:25:01.691Z,3.40
2023-01-19T12:27:48.109Z,3.40
2023-01-19T12:30:25.430Z,3.40
2023-01-19T12:33:13.038Z,3.40
2023-01-19T12:36:05.676Z,3.50
2023-01-19T12:38:42.012Z,3.50
2023-01-19T12:41:25.805Z,3.50
2023-01-19T12:44:11.705Z,3.60
2023-01-19T12:46:46.912Z,3.60
2023-01-19T12:49:34.721Z,3.60
2023-01-19T12:52:34.460Z,3.60
2023-01-19T12:55:17.375Z,3.60
2023-01-19T12:57:50.517Z,3.60
2023-01-19T13:00:24.691Z,3.70
2023-01-19T13:03:32.660Z,3.70
2023-01-19T13:06:00.144Z,3.70
2023-01-19T13:08:57.653Z,3.80
2023-01-19T13:11:27.854Z,3.80
2023-01-19T13:13:58.022Z,3.80
2023-01-19T13:16:27.470Z,3.80
2023-01-19T13:18:58.610Z,3.80
2023-01-19T13:21:27.409Z,3.80
2023-01-19T13:23:59.653Z,3.80
2023-01-19T13:26:30.998Z,3.80
2023-01-19T13:29:14.281Z,3.90
2023-01-19T13:31:49.059Z,3.80
2023-01-19T13:34:19.986Z,3.80
2023-01-19T13:36:52.868Z,3.90
2023-01-19T13:39:28.483Z,3.90
2023-01-19T13:42:00.471Z,3.90
2023-01-19T13:44:33.176Z,3.90
2023-01-19T13:47:04.454Z,3.80
2023-01-19T13:49:36.717Z,3.90
2023-01-19T13:52:12.569Z,3.90
2023-01-19T13:54:54.260Z,4.00
2023-01-19T13:57:25.890Z,4.00
2023-01-19T14:00:15.406Z,4.00
2023-01-19T14:02:54.307Z,4.00
2023-01-19T14:05:23.610Z,4.00
2023-01-19T14:08:12.289Z,4.00
2023-01-19T14:10:46.035Z,4.10
2023-01-19T14:13:24.233Z,4.10
2023-01-19T14:15:55.828Z,4.10
2023-01-19T14:18:30.141Z,4.10
2023-01-19T14:21:09.787Z,4.10
2023-01-19T14:23:50.828Z,4.10
2023-01-19T14:26:37.090Z,4.10
2023-01-19T14:29:14.625Z,4.10
2023-01-19T14:31:51.636Z,4.20
2023-01-19T14:34:41.158Z,4.20
2023-01-19T14:37:25.066Z,4.20
2023-01-19T14:39:57.124Z,4.20
2023-01-19T14:42:30.247Z,4.20
2023-01-19T14:45:00.734Z,4.20
2023-01-19T14:47:35.700Z,4.20
2023-01-19T14:50:22.937Z,4.20
2023-01-19T14:53:05.475Z,4.20
2023-01-19T14:55:43.369Z,4.20
2023-01-19T14:58:16.446Z,4.20
2023-01-19T15:00:45.515Z,4.10
2023-01-19T15:03:14.602Z,4.10
2023-01-19T15:05:45.663Z,4.10
2023-01-19T15:08:29.999Z,4.10
2023-01-19T15:10:58.371Z,4.10
2023-01-19T15:13:27.160Z,4.10
2023-01-19T15:15:54.781Z,4.10
2023-01-19T15:18:25.324Z,4.10
2023-01-19T15:20:55.243Z,4.10
2023-01-19T15:23:22.645Z,4.00
2023-01-19T15:25:51.443Z,4.00
2023-01-19T15:28:19.954Z,4.00
2023-01-19T15:30:47.968Z,4.00
2023-01-19T15:33:23.301Z,4.00
2023-01-19T15:35:51.548Z,3.90
2023-01-19T15:38:19.504Z,3.90
2023-01-19T15:40:51.400Z,3.90
2023-01-19T15:43:19.201Z,3.90
2023-01-19T15:45:51.213Z,3.90
2023-01-19T15:48:19.914Z,3.90
2023-01-19T15:50:47.933Z,3.80
2023-01-19T15:53:18.238Z,3.80
2023-01-19T15:55:49.927Z,3.80
2023-01-19T15:58:20.434Z,3.80
2023-01-19T16:00:55.353Z,3.80
2023-01-19T16:03:24.258Z,3.80
2023-01-19T16:05:51.864Z,3.80
2023-01-19T16:08:21.915Z,3.80
2023-01-19T16:10:49.793Z,3.80
2023-01-19T16:13:17.371Z,3.70
2023-01-19T16:15:44.789Z,3.70
2023-01-19T16:18:12.307Z,3.70
2023-01-19T16:20:39.810Z,3.70
2023-01-19T16:23:14.801Z,3.70
2023-01-19T16:25:43.217Z,3.70
2023-01-19T16:28:10.657Z,3.70
2023-01-19T16:30:38.171Z,3.70
2023-01-19T16:33:05.584Z,3.70
2023-01-19T16:35:32.971Z,3.70
2023-01-19T16:38:00.699Z,3.70
2023-01-19T16:40:28.303Z,3.70
2023-01-19T16:42:55.802Z,3.70
2023-01-19T16:45:23.455Z,3.70
2023-01-19T16:47:52.176Z,3.70
2023-01-19T16:50:19.826Z,3.70
2023-01-19T16:52:47.254Z,3.70
2023-01-19T16:55:14.763Z,3.60
2023-01-19T16:57:42.456Z,3.70
2023-01-19T17:00:10.922Z,3.60
2023-01-19T17:02:38.581Z,3.70
2023-01-19T17:05:06.521Z,3.70
2023-01-19T17:07:34.061Z,3.70
2023-01-19T17:10:01.699Z,3.70
2023-01-19T17:12:31.984Z,3.70
2023-01-19T17:14:59.604Z,3.70
2023-01-19T17:17:27.024Z,3.70
2023-01-19T17:19:54.277Z,3.70
2023-01-19T17:22:21.706Z,3.70
2023-01-19T17:24:49.247Z,3.70
2023-01-19T17:27:17.236Z,3.70
2023-01-19T17:29:44.710Z,3.70
2023-01-19T17:32:12.071Z,3.70
2023-01-19T17:34:39.493Z,3.70
2023-01-19T17:37:06.788Z,3.70
2023-01-19T17:39:34.003Z,3.70
2023-01-19T17:42:01.369Z,3.70
2023-01-19T17:44:28.685Z,3.70
2023-01-19T17:46:56.349Z,3.70
2023-01-19T17:49:24.117Z,3.70
2023-01-19T17:51:53.499Z,3.70
2023-01-19T17:54:21.146Z,3.70
2023-01-19T17:56:50.811Z,3.70
2023-01-19T17:59:18.373Z,3.70
2023-01-19T18:01:46.521Z,3.60
2023-01-19T18:04:14.019Z,3.60
2023-01-19T18:06:41.473Z,3.60
2023-01-19T18:09:09.346Z,3.60
2023-01-19T18:11:37.000Z,3.60
2023-01-19T18:14:05.900Z,3.60
2023-01-19T18:16:33.265Z,3.60
2023-01-19T18:19:00.621Z,3.60
2023-01-19T18:21:28.770Z,3.60
2023-01-19T18:24:02.175Z,3.60
2023-01-19T18:26:30.783Z,3.60
2023-01-19T18:28:58.854Z,3.60
2023-01-19T18:31:27.338Z,3.60
2023-01-19T18:33:55.021Z,3.50
2023-01-19T18:36:22.805Z,3.50
2023-01-19T18:38:50.612Z,3.60
2023-01-19T18:41:20.043Z,3.60
2023-01-19T18:43:48.209Z,3.60
2023-01-19T18:46:16.368Z,3.60
2023-01-19T18:48:44.308Z,3.60
2023-01-19T18:51:14.215Z,3.60
2023-01-19T18:53:42.044Z,3.60
2023-01-19T18:56:12.998Z,3.60
2023-01-19T18:58:40.653Z,3.60
2023-01-19T19:01:26.588Z,3.60
2023-01-19T19:03:55.102Z,3.60
2023-01-19T19:06:24.000Z,3.60
2023-01-19T19:08:53.570Z,3.60
2023-01-19T19:11:22.875Z,3.60
2023-01-19T19:13:55.156Z,3.70
2023-01-19T19:16:23.044Z,3.70
2023-01-19T19:18:50.775Z,3.70
2023-01-19T19:21:20.455Z,3.70
2023-01-19T19:23:53.046Z,3.70
2023-01-19T19:26:20.725Z,3.70
2023-01-19T19:28:48.488Z,3.70
2023-01-19T19:31:20.331Z,3.70
2023-01-19T19:33:49.192Z,3.70
2023-01-19T19:36:16.741Z,3.70
2023-01-19T19:38:47.571Z,3.70
2023-01-19T19:41:21.868Z,3.70
2023-01-19T19:43:49.560Z,3.70
2023-01-19T19:46:19.948Z,3.70
2023-01-19T19:48:48.733Z,3.80
2023-01-19T19:51:19.681Z,3.80
2023-01-19T19:53:50.193Z,3.70
2023-01-19T19:56:21.686Z,3.80
2023-01-19T19:58:50.249Z,3.80
2023-01-19T20:01:20.902Z,3.80
2023-01-19T20:03:49.073Z,3.80
2023-01-19T20:06:22.172Z,3.80
2023-01-19T20:08:51.877Z,3.80
2023-01-19T20:11:25.795Z,3.80
2023-01-19T20:13:54.200Z,3.80
2023-01-19T20:16:23.233Z,3.80
2023-01-19T20:18:54.049Z,3.80
2023-01-19T20:21:22.924Z,3.80
2023-01-19T20:23:52.861Z,3.80
2023-01-19T20:26:26.512Z,3.80
2023-01-19T20:28:57.356Z,3.90
2023-01-19T20:31:28.108Z,3.90
2023-01-19T20:33:57.661Z,3.90
2023-01-19T20:36:25.407Z,3.90
2023-01-19T20:38:54.516Z,3.90
2023-01-19T20:41:23.555Z,3.80
2023-01-19T20:43:51.454Z,3.90
2023-01-19T20:46:19.246Z,3.90
2023-01-19T20:48:50.780Z,3.90
2023-01-19T20:51:18.919Z,3.90
2023-01-19T20:53:47.546Z,3.90
2023-01-19T20:56:15.596Z,3.80
2023-01-19T20:58:43.431Z,3.90
2023-01-19T21:01:21.301Z,3.90
2023-01-19T21:03:49.240Z,3.80
2023-01-19T21:06:17.771Z,3.90
2023-01-19T21:08:45.305Z,3.90
2023-01-19T21:11:13.354Z,3.90
2023-01-19T21:13:40.753Z,3.90
2023-01-19T21:16:08.517Z,3.80
2023-01-19T21:18:36.046Z,3.90
2023-01-19T21:21:03.487Z,3.90
2023-01-19T21:23:31.037Z,3.90
2023-01-19T21:26:00.011Z,3.90
2023-01-19T21:28:28.462Z,3.90
2023-01-19T21:30:56.557Z,3.90
2023-01-19T21:33:24.374Z,3.80
2023-01-19T21:35:57.097Z,3.80
2023-01-19T21:38:29.473Z,3.80
2023-01-19T21:40:57.719Z,3.90
2023-01-19T21:43:26.498Z,3.90
2023-01-19T21:45:54.026Z,3.80
2023-01-19T21:48:21.405Z,3.80
2023-01-19T21:50:58.992Z,3.80
2023-01-19T21:53:26.413Z,3.80
2023-01-19T21:55:53.927Z,3.80
2023-01-19T21:58:23.164Z,3.80
2023-01-19T22:00:50.986Z,3.80
2023-01-19T22:03:18.593Z,3.90
2023-01-19T22:05:45.939Z,3.90
2023-01-19T22:08:13.414Z,3.80
2023-01-19T22:10:40.890Z,3.80
2023-01-19T22:13:09.395Z,3.80
2023-01-19T22:15:37.114Z,3.80
2023-01-19T22:18:04.540Z,3.90
2023-01-19T22:20:31.983Z,3.90
2023-01-19T22:22:59.575Z,3.90
2023-01-19T22:25:28.012Z,3.80
2023-01-19T22:27:56.158Z,3.80
2023-01-19T22:30:23.737Z,3.80
2023-01-19T22:32:53.098Z,3.90
2023-01-19T22:35:21.243Z,3.90
2023-01-19T22:37:48.679Z,3.90
2023-01-19T22:40:16.480Z,3.90
2023-01-19T22:42:46.818Z,3.80
2023-01-19T22:45:15.338Z,3.90
2023-01-19T22:47:43.015Z,3.90
2023-01-19T22:50:10.563Z,3.90
2023-01-19T22:52:38.006Z,3.90
2023-01-19T22:55:05.966Z,3.90
2023-01-19T22:57:36.591Z,3.90
2023-01-19T23:00:08.966Z,3.80
2023-01-19T23:02:36.308Z,3.90
2023-01-19T23:05:03.782Z,3.90
2023-01-19T23:07:31.168Z,3.90
2023-01-19T23:09:58.540Z,3.80
2023-01-19T23:12:26.021Z,3.90
2023-01-19T23:14:53.368Z,3.90
2023-01-19T23:17:20.553Z,3.90
2023-01-19T23:19:47.737Z,3.90
2023-01-19T23:22:14.935Z,3.90
2023-01-19T23:24:42.122Z,3.90
2023-01-19T23:27:09.526Z,3.90
2023-01-19T23:29:36.853Z,3.90
2023-01-19T23:32:04.264Z,4.00
2023-01-19T23:34:31.566Z,4.00
2023-01-19T23:36:58.961Z,4.00
2023-01-19T23:39:26.241Z,3.90
2023-01-19T23:41:53.477Z,4.00
2023-01-19T23:44:20.967Z,4.00
2023-01-19T23:46:48.656Z,3.90
2023-01-19T23:49:16.856Z,4.00
2023-01-19T23:51:44.277Z,3.90
2023-01-19T23:54:12.272Z,4.00
2023-01-19T23:56:39.887Z,4.00
2023-01-19T23:59:10.088Z,4.00
